sensor_id;sensor_type;location;lat;lon;timestamp;temperature;humidity
5344;DHT22;2694;48.954;8.928;2023-10-19T00:01:55;10.90;99.90
5344;DHT22;2694;48.954;8.928;2023-10-19T00:04:22;10.90;99.90
5344;DHT22;2694;48.954;8.928;2023-10-19T00:06:49;10.90;99.90
5344;DHT22;2694;48.954;8.928;2023-10-19T00:09:15;10.90;99.90
5344;DHT22;2694;48.954;8.928;2023-10-19T00:11:43;10.90;99.90
5344;DHT22;2694;48.954;8.928;2023-10-19T00:14:09;10.90;99.90
5344;DHT22;2694;48.954;8.928;2023-10-19T00:16:45;10.90;99.90
5344;DHT22;2694;48.954;8.928;2023-10-19T00:19:18;10.90;99.90
5344;DHT22;2694;48.954;8.928;2023-10-19T00:21:46;10.90;99.90
5344;DHT22;2694;48.954;8.928;2023-10-19T00:24:21;10.90;99.90
5344;DHT22;2694;48.954;8.928;2023-10-19T00:26:50;10.90;99.90
5344;DHT22;2694;48.954;8.928;2023-10-19T00:29:19;10.90;99.90
5344;DHT22;2694;48.954;8.928;2023-10-19T00:31:58;10.80;99.90
5344;DHT22;2694;48.954;8.928;2023-10-19T00:34:26;10.90;99.90
5344;DHT22;2694;48.954;8.928;2023-10-19T00:36:54;10.90;99.90
5344;DHT22;2694;48.954;8.928;2023-10-19T00:39:22;10.80;99.90
5344;DHT22;2694;48.954;8.928;2023-10-19T00:41:51;10.90;99.90
5344;DHT22;2694;48.954;8.928;2023-10-19T00:44:22;10.80;99.90
5344;DHT22;2694;48.954;8.928;2023-10-19T00:47:01;10.90;99.90
5344;DHT22;2694;48.954;8.928;2023-10-19T00:49:30;10.90;99.90
5344;DHT22;2694;48.954;8.928;2023-10-19T00:51:58;10.90;99.90
5344;DHT22;2694;48.954;8.928;2023-10-19T00:54:30;10.90;99.90
5344;DHT22;2694;48.954;8.928;2023-10-19T00:57:03;11.00;99.90
5344;DHT22;2694;48.954;8.928;2023-10-19T00:59:34;11.00;99.90
5344;DHT22;2694;48.954;8.928;2023-10-19T01:02:04;11.00;99.90
5344;DHT22;2694;48.954;8.928;2023-10-19T01:04:43;11.10;99.90
5344;DHT22;2694;48.954;8.928;2023-10-19T01:07:16;11.10;99.90
5344;DHT22;2694;48.954;8.928;2023-10-19T01:09:48;11.10;99.90
5344;DHT22;2694;48.954;8.928;2023-10-19T01:12:20;11.10;99.90
5344;DHT22;2694;48.954;8.928;2023-10-19T01:15:02;11.10;99.90
5344;DHT22;2694;48.954;8.928;2023-10-19T01:17:32;11.00;99.90
5344;DHT22;2694;48.954;8.928;2023-10-19T01:20:03;11.00;99.90
5344;DHT22;2694;48.954;8.928;2023-10-19T01:22:48;11.00;99.90
5344;DHT22;2694;48.954;8.928;2023-10-19T01:25:16;11.00;99.90
5344;DHT22;2694;48.954;8.928;2023-10-19T01:27:50;11.00;99.90
5344;DHT22;2694;48.954;8.928;2023-10-19T01:30:23;11.00;99.90
5344;DHT22;2694;48.954;8.928;2023-10-19T01:32:52;11.00;99.90
5344;DHT22;2694;48.954;8.928;2023-10-19T01:35:19;11.00;99.90
5344;DHT22;2694;48.954;8.928;2023-10-19T01:37:47;11.10;99.90
5344;DHT22;2694;48.954;8.928;2023-10-19T01:40:13;11.10;99.90
5344;DHT22;2694;48.954;8.928;2023-10-19T01:42:46;11.10;99.90
5344;DHT22;2694;48.954;8.928;2023-10-19T01:45:11;11.10;99.90
5344;DHT22;2694;48.954;8.928;2023-10-19T01:47:40;11.00;99.90
5344;DHT22;2694;48.954;8.928;2023-10-19T01:50:07;11.00;99.90
5344;DHT22;2694;48.954;8.928;2023-10-19T01:52:45;11.00;99.90
5344;DHT22;2694;48.954;8.928;2023-10-19T01:55:13;11.00;99.90
5344;DHT22;2694;48.954;8.928;2023-10-19T01:57:46;11.00;99.90
5344;DHT22;2694;48.954;8.928;2023-10-19T02:00:12;11.00;99.90
5344;DHT22;2694;48.954;8.928;2023-10-19T02:02:48;11.10;99.90
5344;DHT22;2694;48.954;8.928;2023-10-19T02:05:15;11.10;99.90
5344;DHT22;2694;48.954;8.928;2023-10-19T02:07:44;11.10;99.90
5344;DHT22;2694;48.954;8.928;2023-10-19T02:10:10;11.10;99.90
5344;DHT22;2694;48.954;8.928;2023-10-19T02:12:39;11.10;99.90
5344;DHT22;2694;48.954;8.928;2023-10-19T02:15:08;11.10;99.90
5344;DHT22;2694;48.954;8.928;2023-10-19T02:17:34;11.10;99.90
5344;DHT22;2694;48.954;8.928;2023-10-19T02:20:01;11.00;99.90
5344;DHT22;2694;48.954;8.928;2023-10-19T02:22:39;11.00;99.90
5344;DHT22;2694;48.954;8.928;2023-10-19T02:25:06;10.90;99.90
5344;DHT22;2694;48.954;8.928;2023-10-19T02:27:32;10.90;99.90
5344;DHT22;2694;48.954;8.928;2023-10-19T02:30:00;10.90;99.90
5344;DHT22;2694;48.954;8.928;2023-10-19T02:32:26;10.90;99.90
5344;DHT22;2694;48.954;8.928;2023-10-19T02:34:53;10.90;99.90
5344;DHT22;2694;48.954;8.928;2023-10-19T02:37:22;10.90;99.90
5344;DHT22;2694;48.954;8.928;2023-10-19T02:39:50;10.90;99.90
5344;DHT22;2694;48.954;8.928;2023-10-19T02:42:17;10.90;99.90
5344;DHT22;2694;48.954;8.928;2023-10-19T02:44:44;10.90;99.90
5344;DHT22;2694;48.954;8.928;2023-10-19T02:47:12;10.90;99.90
5344;DHT22;2694;48.954;8.928;2023-10-19T02:49:39;10.90;99.90
5344;DHT22;2694;48.954;8.928;2023-10-19T02:52:05;10.90;99.90
5344;DHT22;2694;48.954;8.928;2023-10-19T02:54:32;10.90;99.90
5344;DHT22;2694;48.954;8.928;2023-10-19T02:57:00;11.00;99.90
5344;DHT22;2694;48.954;8.928;2023-10-19T02:59:26;10.90;99.90
5344;DHT22;2694;48.954;8.928;2023-10-19T03:01:55;10.90;99.90
5344;DHT22;2694;48.954;8.928;2023-10-19T03:04:28;11.00;99.90
5344;DHT22;2694;48.954;8.928;2023-10-19T03:06:54;10.90;99.90
5344;DHT22;2694;48.954;8.928;2023-10-19T03:09:21;11.00;99.90
5344;DHT22;2694;48.954;8.928;2023-10-19T03:11:54;10.90;99.90
5344;DHT22;2694;48.954;8.928;2023-10-19T03:14:25;10.80;99.90
5344;DHT22;2694;48.954;8.928;2023-10-19T03:16:51;10.70;99.90
5344;DHT22;2694;48.954;8.928;2023-10-19T03:19:18;10.70;99.90
5344;DHT22;2694;48.954;8.928;2023-10-19T03:21:47;10.60;99.90
5344;DHT22;2694;48.954;8.928;2023-10-19T03:24:16;10.70;99.90
5344;DHT22;2694;48.954;8.928;2023-10-19T03:26:48;10.60;99.90
5344;DHT22;2694;48.954;8.928;2023-10-19T03:29:16;10.60;99.90
5344;DHT22;2694;48.954;8.928;2023-10-19T03:31:48;10.60;99.90
5344;DHT22;2694;48.954;8.928;2023-10-19T03:34:15;10.60;99.90
5344;DHT22;2694;48.954;8.928;2023-10-19T03:36:43;10.50;99.90
5344;DHT22;2694;48.954;8.928;2023-10-19T03:39:11;10.50;99.90
5344;DHT22;2694;48.954;8.928;2023-10-19T03:41:39;10.40;99.90
5344;DHT22;2694;48.954;8.928;2023-10-19T03:44:08;10.40;99.90
5344;DHT22;2694;48.954;8.928;2023-10-19T03:46:39;10.50;99.90
5344;DHT22;2694;48.954;8.928;2023-10-19T03:49:18;10.50;99.90
5344;DHT22;2694;48.954;8.928;2023-10-19T03:51:46;10.50;99.90
5344;DHT22;2694;48.954;8.928;2023-10-19T03:54:27;10.50;99.90
5344;DHT22;2694;48.954;8.928;2023-10-19T03:56:54;10.40;99.90
5344;DHT22;2694;48.954;8.928;2023-10-19T03:59:22;10.30;99.90
5344;DHT22;2694;48.954;8.928;2023-10-19T04:01:55;10.30;99.90
5344;DHT22;2694;48.954;8.928;2023-10-19T04:04:24;10.30;99.90
5344;DHT22;2694;48.954;8.928;2023-10-19T04:06:51;10.20;99.90
5344;DHT22;2694;48.954;8.928;2023-10-19T04:09:23;10.20;99.90
5344;DHT22;2694;48.954;8.928;2023-10-19T04:11:55;10.10;99.90
5344;DHT22;2694;48.954;8.928;2023-10-19T04:14:23;10.10;99.90
5344;DHT22;2694;48.954;8.928;2023-10-19T04:16:50;10.10;99.90
5344;DHT22;2694;48.954;8.928;2023-10-19T04:19:17;10.10;99.90
5344;DHT22;2694;48.954;8.928;2023-10-19T04:21:44;10.10;99.90
5344;DHT22;2694;48.954;8.928;2023-10-19T04:24:12;10.10;99.90
5344;DHT22;2694;48.954;8.928;2023-10-19T04:26:40;10.10;99.90
5344;DHT22;2694;48.954;8.928;2023-10-19T04:29:09;10.10;99.90
5344;DHT22;2694;48.954;8.928;2023-10-19T04:31:37;10.10;99.90
5344;DHT22;2694;48.954;8.928;2023-10-19T04:34:07;10.00;99.90
5344;DHT22;2694;48.954;8.928;2023-10-19T04:36:34;10.00;99.90
5344;DHT22;2694;48.954;8.928;2023-10-19T04:39:01;10.00;99.90
5344;DHT22;2694;48.954;8.928;2023-10-19T04:41:28;10.00;99.90
5344;DHT22;2694;48.954;8.928;2023-10-19T04:43:55;10.00;99.90
5344;DHT22;2694;48.954;8.928;2023-10-19T04:46:25;10.00;99.90
5344;DHT22;2694;48.954;8.928;2023-10-19T04:48:54;10.00;99.90
5344;DHT22;2694;48.954;8.928;2023-10-19T04:51:21;10.00;99.90
5344;DHT22;2694;48.954;8.928;2023-10-19T04:53:48;10.00;99.90
5344;DHT22;2694;48.954;8.928;2023-10-19T04:56:15;10.00;99.90
5344;DHT22;2694;48.954;8.928;2023-10-19T04:58:42;10.10;99.90
5344;DHT22;2694;48.954;8.928;2023-10-19T05:01:09;10.10;99.90
5344;DHT22;2694;48.954;8.928;2023-10-19T05:03:38;10.10;99.90
5344;DHT22;2694;48.954;8.928;2023-10-19T05:06:05;10.20;99.90
5344;DHT22;2694;48.954;8.928;2023-10-19T05:08:32;10.10;99.90
5344;DHT22;2694;48.954;8.928;2023-10-19T05:10:59;10.10;99.90
5344;DHT22;2694;48.954;8.928;2023-10-19T05:13:26;10.00;99.90
5344;DHT22;2694;48.954;8.928;2023-10-19T05:15:54;10.00;99.90
5344;DHT22;2694;48.954;8.928;2023-10-19T05:18:21;10.00;99.90
5344;DHT22;2694;48.954;8.928;2023-10-19T05:20:50;10.00;99.90
5344;DHT22;2694;48.954;8.928;2023-10-19T05:23:21;10.00;99.90
5344;DHT22;2694;48.954;8.928;2023-10-19T05:25:49;10.00;99.90
5344;DHT22;2694;48.954;8.928;2023-10-19T05:28:16;10.00;99.90
5344;DHT22;2694;48.954;8.928;2023-10-19T05:30:44;10.00;99.90
5344;DHT22;2694;48.954;8.928;2023-10-19T05:33:11;10.10;99.90
5344;DHT22;2694;48.954;8.928;2023-10-19T05:35:38;10.00;99.90
5344;DHT22;2694;48.954;8.928;2023-10-19T05:38:08;10.00;99.90
5344;DHT22;2694;48.954;8.928;2023-10-19T05:40:35;10.00;99.90
5344;DHT22;2694;48.954;8.928;2023-10-19T05:43:05;9.90;99.90
5344;DHT22;2694;48.954;8.928;2023-10-19T05:45:33;9.90;99.90
5344;DHT22;2694;48.954;8.928;2023-10-19T05:48:02;9.90;99.90
5344;DHT22;2694;48.954;8.928;2023-10-19T05:50:32;9.90;99.90
5344;DHT22;2694;48.954;8.928;2023-10-19T05:52:59;9.80;99.90
5344;DHT22;2694;48.954;8.928;2023-10-19T05:55:27;9.90;99.90
5344;DHT22;2694;48.954;8.928;2023-10-19T05:57:54;9.70;99.90
5344;DHT22;2694;48.954;8.928;2023-10-19T06:00:22;9.80;99.90
5344;DHT22;2694;48.954;8.928;2023-10-19T06:02:52;9.70;99.90
5344;DHT22;2694;48.954;8.928;2023-10-19T06:05:19;9.70;99.90
5344;DHT22;2694;48.954;8.928;2023-10-19T06:07:47;9.70;99.90
5344;DHT22;2694;48.954;8.928;2023-10-19T06:10:15;9.80;99.90
5344;DHT22;2694;48.954;8.928;2023-10-19T06:12:45;9.80;99.90
5344;DHT22;2694;48.954;8.928;2023-10-19T06:15:13;9.80;99.90
5344;DHT22;2694;48.954;8.928;2023-10-19T06:17:40;10.00;99.90
5344;DHT22;2694;48.954;8.928;2023-10-19T06:20:09;10.00;99.90
5344;DHT22;2694;48.954;8.928;2023-10-19T06:22:46;10.10;99.90
5344;DHT22;2694;48.954;8.928;2023-10-19T06:25:16;10.20;99.90
5344;DHT22;2694;48.954;8.928;2023-10-19T06:27:45;10.30;99.90
5344;DHT22;2694;48.954;8.928;2023-10-19T06:30:13;10.20;99.90
5344;DHT22;2694;48.954;8.928;2023-10-19T06:32:47;10.20;99.90
5344;DHT22;2694;48.954;8.928;2023-10-19T06:35:14;10.20;99.90
5344;DHT22;2694;48.954;8.928;2023-10-19T06:37:41;10.20;99.90
5344;DHT22;2694;48.954;8.928;2023-10-19T06:40:10;10.20;99.90
5344;DHT22;2694;48.954;8.928;2023-10-19T06:42:37;10.20;99.90
5344;DHT22;2694;48.954;8.928;2023-10-19T06:45:07;10.30;99.90
5344;DHT22;2694;48.954;8.928;2023-10-19T06:47:35;10.30;99.90
5344;DHT22;2694;48.954;8.928;2023-10-19T06:50:05;10.30;99.90
5344;DHT22;2694;48.954;8.928;2023-10-19T06:52:35;10.40;99.90
5344;DHT22;2694;48.954;8.928;2023-10-19T06:55:03;10.60;99.90
5344;DHT22;2694;48.954;8.928;2023-10-19T06:57:30;10.60;99.90
5344;DHT22;2694;48.954;8.928;2023-10-19T06:59:58;10.60;99.90
5344;DHT22;2694;48.954;8.928;2023-10-19T07:02:26;10.60;99.90
5344;DHT22;2694;48.954;8.928;2023-10-19T07:04:53;10.70;99.90
5344;DHT22;2694;48.954;8.928;2023-10-19T07:07:20;10.80;99.90
5344;DHT22;2694;48.954;8.928;2023-10-19T07:09:47;10.90;99.90
5344;DHT22;2694;48.954;8.928;2023-10-19T07:12:16;11.00;99.90
5344;DHT22;2694;48.954;8.928;2023-10-19T07:14:43;11.00;99.90
5344;DHT22;2694;48.954;8.928;2023-10-19T07:17:10;11.10;99.90
5344;DHT22;2694;48.954;8.928;2023-10-19T07:19:42;11.10;99.90
5344;DHT22;2694;48.954;8.928;2023-10-19T07:22:09;11.00;99.90
5344;DHT22;2694;48.954;8.928;2023-10-19T07:24:36;11.00;99.90
5344;DHT22;2694;48.954;8.928;2023-10-19T07:27:03;11.00;99.90
5344;DHT22;2694;48.954;8.928;2023-10-19T07:29:33;11.10;99.90
5344;DHT22;2694;48.954;8.928;2023-10-19T07:32:01;11.20;99.90
5344;DHT22;2694;48.954;8.928;2023-10-19T07:34:31;11.30;99.90
5344;DHT22;2694;48.954;8.928;2023-10-19T07:37:00;11.40;99.90
5344;DHT22;2694;48.954;8.928;2023-10-19T07:39:27;11.50;99.90
5344;DHT22;2694;48.954;8.928;2023-10-19T07:41:56;11.60;99.90
5344;DHT22;2694;48.954;8.928;2023-10-19T07:44:23;11.70;99.90
5344;DHT22;2694;48.954;8.928;2023-10-19T07:46:51;11.80;99.90
5344;DHT22;2694;48.954;8.928;2023-10-19T07:49:19;11.90;99.90
5344;DHT22;2694;48.954;8.928;2023-10-19T07:51:47;12.00;99.90
5344;DHT22;2694;48.954;8.928;2023-10-19T07:54:16;12.10;99.90
5344;DHT22;2694;48.954;8.928;2023-10-19T07:56:43;12.20;99.90
5344;DHT22;2694;48.954;8.928;2023-10-19T07:59:11;12.20;99.90
5344;DHT22;2694;48.954;8.928;2023-10-19T08:01:38;12.30;99.90
5344;DHT22;2694;48.954;8.928;2023-10-19T08:04:05;12.40;99.90
5344;DHT22;2694;48.954;8.928;2023-10-19T08:06:32;12.50;99.90
5344;DHT22;2694;48.954;8.928;2023-10-19T08:08:59;12.70;99.90
5344;DHT22;2694;48.954;8.928;2023-10-19T08:11:27;12.90;99.90
5344;DHT22;2694;48.954;8.928;2023-10-19T08:13:55;13.00;99.90
5344;DHT22;2694;48.954;8.928;2023-10-19T08:16:21;13.10;99.90
5344;DHT22;2694;48.954;8.928;2023-10-19T08:18:49;13.40;99.90
5344;DHT22;2694;48.954;8.928;2023-10-19T08:21:18;13.50;99.90
5344;DHT22;2694;48.954;8.928;2023-10-19T08:23:45;13.70;99.90
5344;DHT22;2694;48.954;8.928;2023-10-19T08:26:13;13.90;99.90
5344;DHT22;2694;48.954;8.928;2023-10-19T08:28:41;14.00;99.90
5344;DHT22;2694;48.954;8.928;2023-10-19T08:31:09;14.20;99.90
5344;DHT22;2694;48.954;8.928;2023-10-19T08:33:36;14.40;99.90
5344;DHT22;2694;48.954;8.928;2023-10-19T08:36:05;14.50;99.90
5344;DHT22;2694;48.954;8.928;2023-10-19T08:38:32;14.50;99.90
5344;DHT22;2694;48.954;8.928;2023-10-19T08:40:59;14.50;99.90
5344;DHT22;2694;48.954;8.928;2023-10-19T08:43:27;14.60;99.90
5344;DHT22;2694;48.954;8.928;2023-10-19T08:45:55;14.60;99.90
5344;DHT22;2694;48.954;8.928;2023-10-19T08:48:22;14.70;99.90
5344;DHT22;2694;48.954;8.928;2023-10-19T08:50:50;14.80;99.90
5344;DHT22;2694;48.954;8.928;2023-10-19T08:53:19;15.00;99.90
5344;DHT22;2694;48.954;8.928;2023-10-19T08:55:47;15.20;99.90
5344;DHT22;2694;48.954;8.928;2023-10-19T08:58:16;15.30;99.90
5344;DHT22;2694;48.954;8.928;2023-10-19T09:00:46;15.50;99.90
5344;DHT22;2694;48.954;8.928;2023-10-19T09:03:20;15.70;99.90
5344;DHT22;2694;48.954;8.928;2023-10-19T09:05:47;15.80;99.90
5344;DHT22;2694;48.954;8.928;2023-10-19T09:08:15;15.70;99.90
5344;DHT22;2694;48.954;8.928;2023-10-19T09:10:43;15.80;99.90
5344;DHT22;2694;48.954;8.928;2023-10-19T09:13:12;15.90;99.90
5344;DHT22;2694;48.954;8.928;2023-10-19T09:15:41;15.90;99.90
5344;DHT22;2694;48.954;8.928;2023-10-19T09:18:15;16.00;99.90
5344;DHT22;2694;48.954;8.928;2023-10-19T09:20:45;16.00;99.90
5344;DHT22;2694;48.954;8.928;2023-10-19T09:23:20;15.90;99.90
5344;DHT22;2694;48.954;8.928;2023-10-19T09:25:48;15.90;99.90
5344;DHT22;2694;48.954;8.928;2023-10-19T09:28:15;16.00;99.90
5344;DHT22;2694;48.954;8.928;2023-10-19T09:30:43;16.00;99.90
5344;DHT22;2694;48.954;8.928;2023-10-19T09:33:12;16.00;99.90
5344;DHT22;2694;48.954;8.928;2023-10-19T09:35:45;16.10;99.90
5344;DHT22;2694;48.954;8.928;2023-10-19T09:38:13;16.20;99.90
5344;DHT22;2694;48.954;8.928;2023-10-19T09:40:40;16.30;99.90
5344;DHT22;2694;48.954;8.928;2023-10-19T09:43:15;16.40;99.90
5344;DHT22;2694;48.954;8.928;2023-10-19T09:45:47;16.50;99.90
5344;DHT22;2694;48.954;8.928;2023-10-19T09:48:19;16.60;99.90
5344;DHT22;2694;48.954;8.928;2023-10-19T09:50:52;16.90;99.90
5344;DHT22;2694;48.954;8.928;2023-10-19T09:53:22;17.10;99.90
5344;DHT22;2694;48.954;8.928;2023-10-19T09:55:50;17.10;99.90
5344;DHT22;2694;48.954;8.928;2023-10-19T09:58:23;17.00;99.90
5344;DHT22;2694;48.954;8.928;2023-10-19T10:00:51;17.10;99.90
5344;DHT22;2694;48.954;8.928;2023-10-19T10:03:43;17.20;99.90
5344;DHT22;2694;48.954;8.928;2023-10-19T10:06:13;17.20;99.90
5344;DHT22;2694;48.954;8.928;2023-10-19T10:08:41;17.10;99.90
5344;DHT22;2694;48.954;8.928;2023-10-19T10:11:20;17.10;99.90
5344;DHT22;2694;48.954;8.928;2023-10-19T10:13:48;17.10;99.90
5344;DHT22;2694;48.954;8.928;2023-10-19T10:16:18;17.10;99.90
5344;DHT22;2694;48.954;8.928;2023-10-19T10:18:47;17.20;99.90
5344;DHT22;2694;48.954;8.928;2023-10-19T10:21:18;17.30;99.90
5344;DHT22;2694;48.954;8.928;2023-10-19T10:23:48;17.20;99.90
5344;DHT22;2694;48.954;8.928;2023-10-19T10:26:16;17.40;99.90
5344;DHT22;2694;48.954;8.928;2023-10-19T10:28:47;17.50;99.90
5344;DHT22;2694;48.954;8.928;2023-10-19T10:31:18;17.60;99.90
5344;DHT22;2694;48.954;8.928;2023-10-19T10:33:47;17.50;99.90
5344;DHT22;2694;48.954;8.928;2023-10-19T10:36:17;17.40;99.90
5344;DHT22;2694;48.954;8.928;2023-10-19T10:38:44;17.30;99.90
5344;DHT22;2694;48.954;8.928;2023-10-19T10:41:11;17.30;99.90
5344;DHT22;2694;48.954;8.928;2023-10-19T10:43:49;17.30;99.90
5344;DHT22;2694;48.954;8.928;2023-10-19T10:46:16;17.30;99.90
5344;DHT22;2694;48.954;8.928;2023-10-19T10:48:43;17.40;99.90
5344;DHT22;2694;48.954;8.928;2023-10-19T10:51:18;17.40;99.90
5344;DHT22;2694;48.954;8.928;2023-10-19T10:53:49;17.50;99.90
5344;DHT22;2694;48.954;8.928;2023-10-19T10:56:17;17.50;99.90
5344;DHT22;2694;48.954;8.928;2023-10-19T10:58:45;17.50;99.90
5344;DHT22;2694;48.954;8.928;2023-10-19T11:01:12;17.60;99.90
5344;DHT22;2694;48.954;8.928;2023-10-19T11:03:40;17.60;99.90
5344;DHT22;2694;48.954;8.928;2023-10-19T11:06:08;17.80;99.90
5344;DHT22;2694;48.954;8.928;2023-10-19T11:08:37;17.90;99.90
5344;DHT22;2694;48.954;8.928;2023-10-19T11:11:06;17.90;99.90
5344;DHT22;2694;48.954;8.928;2023-10-19T11:13:37;17.90;99.90
5344;DHT22;2694;48.954;8.928;2023-10-19T11:16:05;17.80;99.90
5344;DHT22;2694;48.954;8.928;2023-10-19T11:18:34;17.70;99.90
5344;DHT22;2694;48.954;8.928;2023-10-19T11:21:07;17.60;99.90
5344;DHT22;2694;48.954;8.928;2023-10-19T11:23:40;17.40;99.90
5344;DHT22;2694;48.954;8.928;2023-10-19T11:26:08;17.30;99.90
5344;DHT22;2694;48.954;8.928;2023-10-19T11:28:36;17.10;99.90
5344;DHT22;2694;48.954;8.928;2023-10-19T11:31:16;16.90;99.90
5344;DHT22;2694;48.954;8.928;2023-10-19T11:33:44;16.70;99.90
5344;DHT22;2694;48.954;8.928;2023-10-19T11:36:12;16.60;99.90
5344;DHT22;2694;48.954;8.928;2023-10-19T11:38:44;16.50;99.90
5344;DHT22;2694;48.954;8.928;2023-10-19T11:41:13;16.50;99.90
5344;DHT22;2694;48.954;8.928;2023-10-19T11:43:40;16.50;99.90
5344;DHT22;2694;48.954;8.928;2023-10-19T11:46:08;16.50;99.90
5344;DHT22;2694;48.954;8.928;2023-10-19T11:48:36;16.40;99.90
5344;DHT22;2694;48.954;8.928;2023-10-19T11:51:03;16.40;99.90
5344;DHT22;2694;48.954;8.928;2023-10-19T11:53:31;16.50;99.90
5344;DHT22;2694;48.954;8.928;2023-10-19T11:56:02;16.50;99.90
5344;DHT22;2694;48.954;8.928;2023-10-19T11:58:30;16.40;99.90
5344;DHT22;2694;48.954;8.928;2023-10-19T12:00:58;16.40;99.90
5344;DHT22;2694;48.954;8.928;2023-10-19T12:03:25;16.30;99.90
5344;DHT22;2694;48.954;8.928;2023-10-19T12:05:53;16.10;99.90
5344;DHT22;2694;48.954;8.928;2023-10-19T12:08:21;16.10;99.90
5344;DHT22;2694;48.954;8.928;2023-10-19T12:10:49;16.00;99.90
5344;DHT22;2694;48.954;8.928;2023-10-19T12:13:17;16.00;99.90
5344;DHT22;2694;48.954;8.928;2023-10-19T12:15:44;16.00;99.90
5344;DHT22;2694;48.954;8.928;2023-10-19T12:18:17;16.00;99.90
5344;DHT22;2694;48.954;8.928;2023-10-19T12:20:45;16.10;99.90
5344;DHT22;2694;48.954;8.928;2023-10-19T12:23:13;16.00;99.90
5344;DHT22;2694;48.954;8.928;2023-10-19T12:25:40;16.00;99.90
5344;DHT22;2694;48.954;8.928;2023-10-19T12:28:08;16.10;99.90
5344;DHT22;2694;48.954;8.928;2023-10-19T12:30:42;16.20;99.90
5344;DHT22;2694;48.954;8.928;2023-10-19T12:33:10;16.20;99.90
5344;DHT22;2694;48.954;8.928;2023-10-19T12:35:40;16.30;99.90
5344;DHT22;2694;48.954;8.928;2023-10-19T12:38:17;16.30;99.90
5344;DHT22;2694;48.954;8.928;2023-10-19T12:40:47;16.20;99.90
5344;DHT22;2694;48.954;8.928;2023-10-19T12:43:14;16.30;99.90
5344;DHT22;2694;48.954;8.928;2023-10-19T12:45:45;16.40;99.90
5344;DHT22;2694;48.954;8.928;2023-10-19T12:48:19;16.40;99.90
5344;DHT22;2694;48.954;8.928;2023-10-19T12:50:47;16.30;99.90
5344;DHT22;2694;48.954;8.928;2023-10-19T12:53:14;16.40;99.90
5344;DHT22;2694;48.954;8.928;2023-10-19T12:55:41;16.40;99.90
5344;DHT22;2694;48.954;8.928;2023-10-19T12:58:09;16.50;99.90
5344;DHT22;2694;48.954;8.928;2023-10-19T13:00:37;16.60;99.90
5344;DHT22;2694;48.954;8.928;2023-10-19T13:03:08;16.70;99.90
5344;DHT22;2694;48.954;8.928;2023-10-19T13:05:39;16.60;99.90
5344;DHT22;2694;48.954;8.928;2023-10-19T13:08:07;16.60;99.90
5344;DHT22;2694;48.954;8.928;2023-10-19T13:10:35;16.50;99.90
5344;DHT22;2694;48.954;8.928;2023-10-19T13:13:05;16.50;99.90
5344;DHT22;2694;48.954;8.928;2023-10-19T13:15:32;16.50;99.90
5344;DHT22;2694;48.954;8.928;2023-10-19T13:18:00;16.40;99.90
5344;DHT22;2694;48.954;8.928;2023-10-19T13:20:29;16.30;99.90
5344;DHT22;2694;48.954;8.928;2023-10-19T13:23:00;16.20;99.90
5344;DHT22;2694;48.954;8.928;2023-10-19T13:25:29;16.30;99.90
5344;DHT22;2694;48.954;8.928;2023-10-19T13:28:07;16.20;99.90
5344;DHT22;2694;48.954;8.928;2023-10-19T13:30:39;16.20;99.90
5344;DHT22;2694;48.954;8.928;2023-10-19T13:33:07;16.20;99.90
5344;DHT22;2694;48.954;8.928;2023-10-19T13:35:36;16.20;99.90
5344;DHT22;2694;48.954;8.928;2023-10-19T13:38:04;16.10;99.90
5344;DHT22;2694;48.954;8.928;2023-10-19T13:40:32;16.10;99.90
5344;DHT22;2694;48.954;8.928;2023-10-19T13:42:59;16.10;99.90
5344;DHT22;2694;48.954;8.928;2023-10-19T13:45:26;16.10;99.90
5344;DHT22;2694;48.954;8.928;2023-10-19T13:47:53;16.10;99.90
5344;DHT22;2694;48.954;8.928;2023-10-19T13:50:24;16.10;99.90
5344;DHT22;2694;48.954;8.928;2023-10-19T13:52:53;16.10;99.90
5344;DHT22;2694;48.954;8.928;2023-10-19T13:55:22;16.00;99.90
5344;DHT22;2694;48.954;8.928;2023-10-19T13:57:49;16.10;99.90
5344;DHT22;2694;48.954;8.928;2023-10-19T14:00:18;16.00;99.90
5344;DHT22;2694;48.954;8.928;2023-10-19T14:02:51;16.00;99.90
5344;DHT22;2694;48.954;8.928;2023-10-19T14:05:18;16.00;99.90
5344;DHT22;2694;48.954;8.928;2023-10-19T14:07:46;16.00;99.90
5344;DHT22;2694;48.954;8.928;2023-10-19T14:10:14;16.00;99.90
5344;DHT22;2694;48.954;8.928;2023-10-19T14:12:45;16.00;99.90
5344;DHT22;2694;48.954;8.928;2023-10-19T14:15:14;15.90;99.90
5344;DHT22;2694;48.954;8.928;2023-10-19T14:17:42;15.90;99.90
5344;DHT22;2694;48.954;8.928;2023-10-19T14:20:09;15.90;99.90
5344;DHT22;2694;48.954;8.928;2023-10-19T14:22:39;15.80;99.90
5344;DHT22;2694;48.954;8.928;2023-10-19T14:25:07;15.80;99.90
5344;DHT22;2694;48.954;8.928;2023-10-19T14:27:39;15.80;99.90
5344;DHT22;2694;48.954;8.928;2023-10-19T14:30:08;15.80;99.90
5344;DHT22;2694;48.954;8.928;2023-10-19T14:32:37;15.80;99.90
5344;DHT22;2694;48.954;8.928;2023-10-19T14:35:05;15.80;99.90
5344;DHT22;2694;48.954;8.928;2023-10-19T14:37:35;15.70;99.90
5344;DHT22;2694;48.954;8.928;2023-10-19T14:40:06;15.70;99.90
5344;DHT22;2694;48.954;8.928;2023-10-19T14:42:35;15.70;99.90
5344;DHT22;2694;48.954;8.928;2023-10-19T14:45:05;15.70;99.90
5344;DHT22;2694;48.954;8.928;2023-10-19T14:47:35;15.60;99.90
5344;DHT22;2694;48.954;8.928;2023-10-19T14:50:02;15.60;99.90
5344;DHT22;2694;48.954;8.928;2023-10-19T14:52:29;15.60;99.90
5344;DHT22;2694;48.954;8.928;2023-10-19T14:54:56;15.60;99.90
5344;DHT22;2694;48.954;8.928;2023-10-19T14:57:25;15.50;99.90
5344;DHT22;2694;48.954;8.928;2023-10-19T14:59:52;15.50;99.90
5344;DHT22;2694;48.954;8.928;2023-10-19T15:02:20;15.50;99.90
5344;DHT22;2694;48.954;8.928;2023-10-19T15:04:49;15.40;99.90
5344;DHT22;2694;48.954;8.928;2023-10-19T15:07:16;15.40;99.90
5344;DHT22;2694;48.954;8.928;2023-10-19T15:09:44;15.40;99.90
5344;DHT22;2694;48.954;8.928;2023-10-19T15:12:11;15.40;99.90
5344;DHT22;2694;48.954;8.928;2023-10-19T15:14:40;15.40;99.90
5344;DHT22;2694;48.954;8.928;2023-10-19T15:17:08;15.40;99.90
5344;DHT22;2694;48.954;8.928;2023-10-19T15:19:38;15.50;99.90
5344;DHT22;2694;48.954;8.928;2023-10-19T15:22:04;15.60;99.90
5344;DHT22;2694;48.954;8.928;2023-10-19T15:24:31;15.50;99.90
5344;DHT22;2694;48.954;8.928;2023-10-19T15:26:58;15.50;99.90
5344;DHT22;2694;48.954;8.928;2023-10-19T15:29:26;15.40;99.90
5344;DHT22;2694;48.954;8.928;2023-10-19T15:31:54;15.40;99.90
5344;DHT22;2694;48.954;8.928;2023-10-19T15:34:22;15.40;99.90
5344;DHT22;2694;48.954;8.928;2023-10-19T15:36:50;15.40;99.90
5344;DHT22;2694;48.954;8.928;2023-10-19T15:39:17;15.40;99.90
5344;DHT22;2694;48.954;8.928;2023-10-19T15:41:44;15.40;99.90
5344;DHT22;2694;48.954;8.928;2023-10-19T15:44:11;15.40;99.90
5344;DHT22;2694;48.954;8.928;2023-10-19T15:46:38;15.30;99.90
5344;DHT22;2694;48.954;8.928;2023-10-19T15:49:08;15.30;99.90
5344;DHT22;2694;48.954;8.928;2023-10-19T15:51:35;15.30;99.90
5344;DHT22;2694;48.954;8.928;2023-10-19T15:54:03;15.30;99.90
5344;DHT22;2694;48.954;8.928;2023-10-19T15:56:31;15.30;99.90
5344;DHT22;2694;48.954;8.928;2023-10-19T15:58:58;15.20;99.90
5344;DHT22;2694;48.954;8.928;2023-10-19T16:01:25;15.20;99.90
5344;DHT22;2694;48.954;8.928;2023-10-19T16:03:52;15.20;99.90
5344;DHT22;2694;48.954;8.928;2023-10-19T16:06:18;15.20;99.90
5344;DHT22;2694;48.954;8.928;2023-10-19T16:08:45;15.10;99.90
5344;DHT22;2694;48.954;8.928;2023-10-19T16:11:14;15.10;99.90
5344;DHT22;2694;48.954;8.928;2023-10-19T16:13:41;15.10;99.90